createdAt,value
2023-02-18T00:01:48.287Z,7.54
2023-02-18T00:04:16.866Z,7.53
2023-02-18T00:06:45.363Z,7.52
2023-02-18T00:09:14.329Z,7.51
2023-02-18T00:11:42.809Z,7.48
2023-02-18T00:14:15.015Z,7.48
2023-02-18T00:16:44.588Z,7.46
2023-02-18T00:19:17.310Z,7.46
2023-02-18T00:21:46.937Z,7.46
2023-02-18T00:24:17.202Z,7.46
2023-02-18T00:26:46.236Z,7.47
2023-02-18T00:29:14.874Z,7.47
2023-02-18T00:31:44.166Z,7.46
2023-02-18T00:34:13.827Z,7.45
2023-02-18T00:36:43.294Z,7.45
2023-02-18T00:39:13.277Z,7.45
2023-02-18T00:41:43.517Z,7.44
2023-02-18T00:44:13.340Z,7.43
2023-02-18T00:46:42.221Z,7.43
2023-02-18T00:49:10.923Z,7.43
2023-02-18T00:51:39.623Z,7.40
2023-02-18T00:54:10.216Z,7.39
2023-02-18T00:56:38.726Z,7.35
2023-02-18T00:59:07.345Z,7.32
2023-02-18T01:01:35.878Z,7.29
2023-02-18T01:04:05.671Z,7.26
2023-02-18T01:06:34.279Z,7.23
2023-02-18T01:09:06.174Z,7.18
2023-02-18T01:11:34.917Z,7.14
2023-02-18T01:14:04.220Z,7.19
2023-02-18T01:16:32.769Z,8.00
2023-02-18T01:19:02.030Z,8.33
2023-02-18T01:21:30.506Z,8.04
2023-02-18T01:23:59.713Z,7.78
2023-02-18T01:26:28.472Z,7.61
2023-02-18T01:28:57.065Z,7.49
2023-02-18T01:31:25.635Z,7.39
2023-02-18T01:33:54.300Z,7.31
2023-02-18T01:36:22.927Z,7.24
2023-02-18T01:38:51.481Z,7.20
2023-02-18T01:41:20.613Z,7.64
2023-02-18T01:44:22.526Z,8.29
2023-02-18T01:46:51.653Z,8.31
2023-02-18T01:49:32.702Z,8.01
2023-02-18T01:52:05.550Z,7.73
2023-02-18T01:54:40.087Z,7.52
2023-02-18T01:57:13.315Z,7.37
2023-02-18T01:59:59.638Z,7.24
2023-02-18T02:02:35.767Z,7.13
2023-02-18T02:05:04.884Z,7.42
2023-02-18T02:07:33.530Z,8.04
2023-02-18T02:10:02.794Z,8.31
2023-02-18T02:12:44.987Z,7.97
2023-02-18T02:15:58.958Z,7.62
2023-02-18T02:18:39.561Z,7.33
2023-02-18T02:21:32.957Z,7.18
2023-02-18T02:24:07.103Z,7.14
2023-02-18T02:26:44.762Z,7.68
2023-02-18T02:29:15.812Z,8.27
2023-02-18T02:32:15.333Z,8.22
2023-02-18T02:35:09.719Z,7.79
2023-02-18T02:38:00.594Z,7.48
2023-02-18T02:40:52.166Z,7.27
2023-02-18T02:43:35.977Z,7.13
2023-02-18T02:46:13.633Z,7.19
2023-02-18T02:48:50.970Z,7.83
2023-02-18T02:51:35.454Z,8.34
2023-02-18T02:54:20.297Z,8.16
2023-02-18T02:56:49.012Z,7.74
2023-02-18T02:59:25.133Z,7.47
2023-02-18T03:02:24.017Z,7.28
2023-02-18T03:05:20.751Z,7.13
2023-02-18T03:08:05.070Z,7.08
2023-02-18T03:10:59.972Z,7.66
2023-02-18T03:13:59.299Z,8.28
2023-02-18T03:16:35.502Z,8.14
2023-02-18T03:19:08.386Z,7.78
2023-02-18T03:21:50.333Z,7.51
2023-02-18T03:24:32.508Z,7.31
2023-02-18T03:27:26.553Z,7.16
2023-02-18T03:30:13.507Z,7.08
2023-02-18T03:32:44.247Z,7.62
2023-02-18T03:35:16.093Z,8.22
2023-02-18T03:38:03.233Z,8.46
2023-02-18T03:40:32.287Z,7.99
2023-02-18T03:43:02.265Z,7.65
2023-02-18T03:45:30.844Z,7.44
2023-02-18T03:47:59.467Z,7.27
2023-02-18T03:50:28.065Z,7.15
2023-02-18T03:52:56.544Z,7.49
2023-02-18T03:55:25.017Z,8.08
2023-02-18T03:57:53.532Z,8.43
2023-02-18T04:00:22.267Z,8.12
2023-02-18T04:02:50.831Z,7.75
2023-02-18T04:05:19.639Z,7.49
2023-02-18T04:07:48.092Z,7.28
2023-02-18T04:10:16.966Z,7.12
2023-02-18T04:12:45.558Z,7.28
2023-02-18T04:15:14.073Z,7.85
2023-02-18T04:17:43.953Z,8.33
2023-02-18T04:20:12.829Z,8.21
2023-02-18T04:22:42.867Z,7.78
2023-02-18T04:25:11.402Z,7.47
2023-02-18T04:27:39.915Z,7.25
2023-02-18T04:30:09.470Z,7.08
2023-02-18T04:32:38.377Z,7.06
2023-02-18T04:35:07.371Z,7.59
2023-02-18T04:37:35.869Z,8.12
2023-02-18T04:40:04.958Z,8.21
2023-02-18T04:42:33.485Z,7.82
2023-02-18T04:45:01.956Z,7.48
2023-02-18T04:47:30.722Z,7.25
2023-02-18T04:49:59.154Z,7.07
2023-02-18T04:52:27.796Z,7.29
2023-02-18T04:54:56.223Z,7.89
2023-02-18T04:57:24.655Z,8.28
2023-02-18T04:59:53.149Z,8.01
2023-02-18T05:02:21.643Z,7.62
2023-02-18T05:04:50.495Z,7.35
2023-02-18T05:07:19.323Z,7.14
2023-02-18T05:09:47.777Z,7.01
2023-02-18T05:12:16.282Z,7.38
2023-02-18T05:14:44.847Z,7.94
2023-02-18T05:17:13.251Z,8.23
2023-02-18T05:19:41.795Z,7.91
2023-02-18T05:22:10.410Z,7.52
2023-02-18T05:24:38.941Z,7.22
2023-02-18T05:27:07.367Z,7.00
2023-02-18T05:29:36.414Z,7.02
2023-02-18T05:32:05.108Z,7.54
2023-02-18T05:34:33.584Z,8.04
2023-02-18T05:37:02.192Z,8.10
2023-02-18T05:39:30.717Z,7.68
2023-02-18T05:41:59.171Z,7.30
2023-02-18T05:44:30.807Z,7.01
2023-02-18T05:47:11.511Z,6.82
2023-02-18T05:49:42.756Z,7.20
2023-02-18T05:52:12.837Z,7.72
2023-02-18T05:54:41.337Z,8.10
2023-02-18T05:57:11.257Z,7.79
2023-02-18T05:59:39.726Z,7.33
2023-02-18T06:02:08.201Z,6.99
2023-02-18T06:04:36.764Z,6.78
2023-02-18T06:07:05.211Z,7.06
2023-02-18T06:09:34.085Z,7.62
2023-02-18T06:12:02.608Z,8.12
2023-02-18T06:14:31.034Z,8.47
2023-02-18T06:16:59.521Z,8.19
2023-02-18T06:19:28.038Z,7.70
2023-02-18T06:21:56.700Z,7.34
2023-02-18T06:24:25.161Z,7.08
2023-02-18T06:26:53.840Z,6.98
2023-02-18T06:29:22.358Z,7.44
2023-02-18T06:31:51.008Z,8.01
2023-02-18T06:34:20.389Z,8.33
2023-02-18T06:36:48.795Z,7.97
2023-02-18T06:39:17.245Z,7.56
2023-02-18T06:41:45.695Z,7.28
2023-02-18T06:44:17.225Z,7.08
2023-02-18T06:46:45.800Z,7.44
2023-02-18T06:49:14.257Z,7.99
2023-02-18T06:51:42.710Z,8.37
2023-02-18T06:54:11.204Z,8.19
2023-02-18T06:56:39.662Z,7.77
2023-02-18T06:59:08.604Z,7.44
2023-02-18T07:01:37.151Z,7.20
2023-02-18T07:04:05.818Z,7.14
2023-02-18T07:06:34.288Z,7.62
2023-02-18T07:09:02.808Z,8.17
2023-02-18T07:11:32.141Z,8.55
2023-02-18T07:14:00.763Z,8.35
2023-02-18T07:16:29.351Z,7.93
2023-02-18T07:18:57.830Z,7.63
2023-02-18T07:21:26.610Z,7.41
2023-02-18T07:23:55.321Z,7.31
2023-02-18T07:26:23.789Z,7.75
2023-02-18T07:28:52.288Z,8.37
2023-02-18T07:31:20.919Z,8.81
2023-02-18T07:33:49.416Z,8.60
2023-02-18T07:36:17.875Z,8.19
2023-02-18T07:38:47.437Z,7.90
2023-02-18T07:41:19.796Z,7.67
2023-02-18T07:43:48.505Z,7.49
2023-02-18T07:46:17.606Z,7.46
2023-02-18T07:48:46.216Z,7.99
2023-02-18T07:51:15.035Z,8.61
2023-02-18T07:53:43.658Z,8.87
2023-02-18T07:56:12.254Z,8.54
2023-02-18T07:58:40.970Z,8.21
2023-02-18T08:01:12.463Z,7.99
2023-02-18T08:03:42.054Z,7.83
2023-02-18T08:06:32.044Z,7.70
2023-02-18T08:09:00.670Z,7.60
2023-02-18T08:11:29.202Z,7.73
2023-02-18T08:13:57.942Z,8.34
2023-02-18T08:16:26.968Z,8.93
2023-02-18T08:18:56.269Z,8.93
2023-02-18T08:21:25.984Z,8.58
2023-02-18T08:23:54.745Z,8.33
2023-02-18T08:26:23.203Z,8.18
2023-02-18T08:28:51.682Z,8.07
2023-02-18T08:31:23.991Z,7.99
2023-02-18T08:33:55.141Z,7.93
2023-02-18T08:36:24.054Z,7.86
2023-02-18T08:38:52.665Z,7.81
2023-02-18T08:41:21.642Z,7.80
2023-02-18T08:43:51.062Z,7.79
2023-02-18T08:46:31.567Z,7.77
2023-02-18T08:49:06.159Z,7.80
2023-02-18T08:51:35.000Z,8.17
2023-02-18T08:54:03.643Z,8.80
2023-02-18T08:56:33.008Z,8.78
2023-02-18T08:59:01.486Z,8.64
2023-02-18T09:01:30.115Z,8.56
2023-02-18T09:03:58.805Z,8.54
2023-02-18T09:06:27.461Z,8.54
2023-02-18T09:08:56.065Z,8.59
2023-02-18T09:11:24.597Z,8.65
2023-02-18T09:13:53.544Z,8.67
2023-02-18T09:16:22.050Z,8.71
2023-02-18T09:18:50.628Z,8.78
2023-02-18T09:21:21.025Z,8.87
2023-02-18T09:23:51.134Z,8.96
2023-02-18T09:26:23.291Z,9.06
2023-02-18T09:28:54.259Z,9.15
2023-02-18T09:31:26.660Z,9.22
2023-02-18T09:34:03.365Z,9.26
2023-02-18T09:36:33.222Z,9.27
2023-02-18T09:39:03.039Z,9.31
2023-02-18T09:41:59.518Z,9.37
2023-02-18T09:44:51.526Z,9.46
2023-02-18T09:47:33.322Z,9.54
2023-02-18T09:50:26.622Z,9.59
2023-02-18T09:52:56.235Z,9.65
2023-02-18T09:55:39.223Z,9.74
2023-02-18T09:58:12.720Z,9.82
2023-02-18T10:00:44.652Z,9.88
2023-02-18T10:03:22.875Z,9.94
2023-02-18T10:06:24.517Z,10.03
2023-02-18T10:08:54.783Z,10.16
2023-02-18T10:11:38.361Z,10.28
2023-02-18T10:14:15.217Z,10.36
2023-02-18T10:16:45.509Z,10.46
2023-02-18T10:19:21.585Z,10.60
2023-02-18T10:21:52.122Z,10.73
2023-02-18T10:24:50.414Z,10.81
2023-02-18T10:27:31.147Z,10.88
2023-02-18T10:30:29.061Z,10.95
2023-02-18T10:33:39.493Z,11.04
2023-02-18T10:36:32.665Z,11.12
2023-02-18T10:39:33.206Z,11.22
2023-02-18T10:42:07.618Z,11.28
2023-02-18T10:45:08.926Z,11.30
2023-02-18T10:47:45.219Z,11.27
2023-02-18T10:50:31.016Z,11.27
2023-02-18T10:53:11.555Z,11.29
2023-02-18T10:55:43.785Z,11.33
2023-02-18T10:58:37.133Z,11.34
2023-02-18T11:01:13.698Z,11.32
2023-02-18T11:03:49.146Z,11.23
2023-02-18T11:06:29.828Z,11.13
2023-02-18T11:08:59.563Z,11.08
2023-02-18T11:11:39.817Z,11.06
2023-02-18T11:14:13.909Z,11.03
2023-02-18T11:16:45.493Z,10.98
2023-02-18T11:19:35.355Z,10.86
2023-02-18T11:22:25.283Z,10.74
2023-02-18T11:24:59.711Z,10.62
2023-02-18T11:27:30.950Z,10.50
2023-02-18T11:30:16.612Z,10.37
2023-02-18T11:32:46.804Z,10.24
2023-02-18T11:35:25.305Z,10.13
2023-02-18T11:37:57.613Z,10.05
2023-02-18T11:40:33.353Z,9.97
2023-02-18T11:43:14.900Z,9.85
2023-02-18T11:45:44.255Z,9.72
2023-02-18T11:48:20.480Z,9.63
2023-02-18T11:50:52.539Z,9.54
2023-02-18T11:53:24.133Z,9.47
2023-02-18T11:55:58.778Z,9.37
2023-02-18T11:58:33.332Z,9.27
2023-02-18T12:01:03.756Z,9.14
2023-02-18T12:03:57.516Z,9.04
2023-02-18T12:06:37.647Z,8.97
2023-02-18T12:09:09.103Z,8.91
2023-02-18T12:11:43.047Z,8.82
2023-02-18T12:14:18.773Z,8.73
2023-02-18T12:16:56.167Z,8.77
2023-02-18T12:19:48.995Z,9.34
2023-02-18T12:22:43.996Z,10.04
2023-02-18T12:25:18.108Z,10.16
2023-02-18T12:27:54.596Z,9.72
2023-02-18T12:30:55.826Z,9.65
2023-02-18T12:34:16.583Z,10.18
2023-02-18T12:37:09.618Z,10.63
2023-02-18T12:40:03.731Z,10.24
2023-02-18T12:42:35.138Z,9.74
2023-02-18T12:45:25.600Z,9.96
2023-02-18T12:48:13.847Z,10.27
2023-02-18T12:51:05.459Z,10.52
2023-02-18T12:53:52.742Z,10.71
2023-02-18T12:56:37.527Z,10.91
2023-02-18T12:59:29.037Z,11.02
2023-02-18T13:02:24.078Z,10.71
2023-02-18T13:05:19.490Z,9.94
2023-02-18T13:08:08.027Z,9.85
2023-02-18T13:10:54.718Z,10.17
2023-02-18T13:13:30.708Z,10.46
2023-02-18T13:16:09.573Z,10.71
2023-02-18T13:19:00.889Z,10.72
2023-02-18T13:21:31.916Z,10.10
2023-02-18T13:24:23.403Z,9.99
2023-02-18T13:26:59.826Z,10.32
2023-02-18T13:30:10.184Z,10.60
2023-02-18T13:32:51.248Z,10.87
2023-02-18T13:35:30.411Z,11.07
2023-02-18T13:38:34.815Z,11.22
2023-02-18T13:41:05.688Z,11.36
2023-02-18T13:43:36.202Z,11.48
2023-02-18T13:46:07.619Z,11.59
2023-02-18T13:48:47.999Z,11.70
2023-02-18T13:51:29.578Z,11.81
2023-02-18T13:54:07.485Z,11.91
2023-02-18T13:56:41.440Z,11.79
2023-02-18T13:59:16.624Z,11.07
2023-02-18T14:01:48.277Z,10.37
2023-02-18T14:04:36.996Z,10.23
2023-02-18T14:07:33.467Z,10.59
2023-02-18T14:10:17.644Z,10.88
2023-02-18T14:12:58.305Z,11.10
2023-02-18T14:15:26.934Z,11.29
2023-02-18T14:18:12.854Z,11.40
2023-02-18T14:20:41.388Z,11.53
2023-02-18T14:23:12.614Z,11.67
2023-02-18T14:25:43.436Z,11.78
2023-02-18T14:28:36.559Z,11.88
2023-02-18T14:31:14.476Z,11.98
2023-02-18T14:33:55.286Z,12.09
2023-02-18T14:36:37.242Z,12.18
2023-02-18T14:39:30.205Z,12.27
2023-02-18T14:42:18.347Z,12.37
2023-02-18T14:44:55.799Z,12.39
2023-02-18T14:47:33.310Z,11.80
2023-02-18T14:50:05.908Z,11.04
2023-02-18T14:52:45.851Z,10.51
2023-02-18T14:55:39.369Z,10.65
2023-02-18T14:58:31.501Z,11.07
2023-02-18T15:01:26.718Z,11.36
2023-02-18T15:03:56.790Z,11.56
2023-02-18T15:06:37.150Z,11.72
2023-02-18T15:09:20.155Z,11.83
2023-02-18T15:11:56.640Z,11.91
2023-02-18T15:14:40.790Z,11.98
2023-02-18T15:17:25.126Z,12.01
2023-02-18T15:20:01.027Z,12.05
2023-02-18T15:22:34.339Z,12.09
2023-02-18T15:25:03.705Z,11.83
2023-02-18T15:27:37.417Z,11.04
2023-02-18T15:30:29.199Z,10.29
2023-02-18T15:33:00.122Z,9.69
2023-02-18T15:35:33.347Z,9.83
2023-02-18T15:38:02.455Z,10.21
2023-02-18T15:40:37.320Z,10.48
2023-02-18T15:43:07.320Z,10.68
2023-02-18T15:45:42.556Z,10.82
2023-02-18T15:48:22.889Z,10.93
2023-02-18T15:51:02.734Z,11.03
2023-02-18T15:53:40.697Z,11.10
2023-02-18T15:56:21.296Z,11.18
2023-02-18T15:58:49.855Z,11.22
2023-02-18T16:01:30.465Z,11.26
2023-02-18T16:03:59.483Z,11.29
2023-02-18T16:06:29.667Z,11.33
2023-02-18T16:09:08.224Z,11.36
2023-02-18T16:11:44.097Z,11.39
2023-02-18T16:14:27.847Z,11.41
2023-02-18T16:17:21.427Z,11.44
2023-02-18T16:20:04.721Z,11.46
2023-02-18T16:22:39.690Z,11.47
2023-02-18T16:25:21.403Z,11.48
2023-02-18T16:28:04.211Z,11.49
2023-02-18T16:30:34.558Z,11.50
2023-02-18T16:33:03.772Z,11.16
2023-02-18T16:35:47.469Z,10.36
2023-02-18T16:38:24.593Z,9.55
2023-02-18T16:40:54.766Z,9.21
2023-02-18T16:43:27.238Z,9.52
2023-02-18T16:45:58.073Z,9.85
2023-02-18T16:48:40.473Z,10.11
2023-02-18T16:51:24.583Z,10.32
2023-02-18T16:53:53.086Z,10.46
2023-02-18T16:56:25.921Z,10.56
2023-02-18T16:58:54.749Z,10.64
2023-02-18T17:01:29.159Z,10.72
2023-02-18T17:03:59.412Z,10.76
2023-02-18T17:06:29.329Z,10.82
2023-02-18T17:08:57.825Z,10.88
2023-02-18T17:11:32.272Z,10.93
2023-02-18T17:14:05.165Z,10.96
2023-02-18T17:16:33.918Z,10.99
2023-02-18T17:19:02.475Z,10.74
2023-02-18T17:21:31.217Z,9.97
2023-02-18T17:23:59.738Z,9.26
2023-02-18T17:26:30.537Z,9.02
2023-02-18T17:29:03.941Z,9.34
2023-02-18T17:31:38.327Z,9.65
2023-02-18T17:34:09.972Z,9.86
2023-02-18T17:36:39.873Z,10.01
2023-02-18T17:39:14.687Z,10.12
2023-02-18T17:41:43.799Z,10.21
2023-02-18T17:44:23.866Z,10.30
2023-02-18T17:46:53.205Z,10.33
2023-02-18T17:49:22.871Z,10.38
2023-02-18T17:51:52.435Z,10.46
2023-02-18T17:54:22.909Z,10.52
2023-02-18T17:56:51.489Z,10.56
2023-02-18T17:59:20.108Z,10.59
2023-02-18T18:01:48.608Z,10.61
2023-02-18T18:04:19.553Z,10.63
2023-02-18T18:06:50.043Z,10.63
2023-02-18T18:09:18.669Z,10.63
2023-02-18T18:11:47.468Z,10.63
2023-02-18T18:14:15.962Z,10.63
2023-02-18T18:16:44.464Z,10.63
2023-02-18T18:19:13.099Z,10.23
2023-02-18T18:21:41.877Z,9.42
2023-02-18T18:24:12.749Z,8.75
2023-02-18T18:26:41.297Z,8.69
2023-02-18T18:29:09.908Z,9.05
2023-02-18T18:31:38.709Z,9.29
2023-02-18T18:34:07.372Z,9.44
2023-02-18T18:36:36.147Z,9.53
2023-02-18T18:39:04.648Z,9.59
2023-02-18T18:41:33.057Z,9.61
2023-02-18T18:44:02.407Z,9.62
2023-02-18T18:46:30.947Z,9.63
2023-02-18T18:48:59.369Z,9.65
2023-02-18T18:51:33.053Z,9.65
2023-02-18T18:54:01.608Z,9.67
2023-02-18T18:56:30.064Z,9.73
2023-02-18T18:58:58.751Z,9.77
2023-02-18T19:01:29.057Z,9.83
2023-02-18T19:03:57.896Z,9.89
2023-02-18T19:06:26.424Z,9.93
2023-02-18T19:08:54.835Z,9.96
2023-02-18T19:11:23.308Z,9.95
2023-02-18T19:13:52.474Z,9.95
2023-02-18T19:16:36.427Z,9.96
2023-02-18T19:19:04.964Z,9.94
2023-02-18T19:21:33.715Z,9.94
2023-02-18T19:24:02.472Z,9.93
2023-02-18T19:26:31.575Z,9.96
2023-02-18T19:29:00.272Z,9.97
2023-02-18T19:31:28.859Z,9.99
2023-02-18T19:33:57.547Z,10.00
2023-02-18T19:36:26.006Z,10.03
2023-02-18T19:38:54.622Z,10.05
2023-02-18T19:41:23.194Z,10.08
2023-02-18T19:43:51.616Z,10.10
2023-02-18T19:46:20.091Z,10.10
2023-02-18T19:48:52.581Z,10.13
2023-02-18T19:51:25.133Z,10.13
2023-02-18T19:53:54.885Z,10.12
2023-02-18T19:56:24.624Z,10.10
2023-02-18T19:58:56.854Z,10.10
2023-02-18T20:01:25.411Z,10.10
2023-02-18T20:03:53.922Z,10.09
2023-02-18T20:06:22.628Z,10.09
2023-02-18T20:08:54.050Z,10.10
2023-02-18T20:11:23.582Z,10.07
2023-02-18T20:13:52.048Z,10.08
2023-02-18T20:16:20.493Z,10.09
2023-02-18T20:18:49.450Z,10.06
2023-02-18T20:21:17.882Z,10.06
2023-02-18T20:23:46.574Z,10.05
2023-02-18T20:26:15.360Z,9.83
2023-02-18T20:28:44.702Z,9.08
2023-02-18T20:31:16.662Z,8.35
2023-02-18T20:33:45.664Z,8.26
2023-02-18T20:36:14.582Z,8.48
2023-02-18T20:38:43.192Z,8.65
2023-02-18T20:41:14.747Z,8.77
2023-02-18T20:43:43.571Z,8.85
2023-02-18T20:46:15.085Z,8.91
2023-02-18T20:48:44.334Z,8.94
2023-02-18T20:51:16.570Z,8.99
2023-02-18T20:53:46.129Z,8.99
2023-02-18T20:56:15.573Z,9.05
2023-02-18T20:58:44.595Z,9.07
2023-02-18T21:01:15.955Z,9.10
2023-02-18T21:03:46.414Z,9.13
2023-02-18T21:06:18.082Z,9.16
2023-02-18T21:08:48.461Z,9.19
2023-02-18T21:11:22.665Z,9.18
2023-02-18T21:13:53.238Z,9.17
2023-02-18T21:16:23.502Z,9.15
2023-02-18T21:18:52.018Z,9.14
2023-02-18T21:21:23.898Z,9.13
2023-02-18T21:23:53.269Z,9.14
2023-02-18T21:26:24.197Z,9.12
2023-02-18T21:28:56.105Z,9.07
2023-02-18T21:31:27.831Z,9.02
2023-02-18T21:33:57.254Z,8.99
2023-02-18T21:36:26.580Z,8.98
2023-02-18T21:38:57.505Z,8.96
2023-02-18T21:41:27.074Z,8.95
2023-02-18T21:43:55.724Z,8.96
2023-02-18T21:46:27.583Z,8.97
2023-02-18T21:49:03.137Z,8.99
2023-02-18T21:51:56.594Z,9.57
2023-02-18T21:54:31.779Z,11.64
2023-02-18T21:57:03.069Z,11.46
2023-02-18T21:59:33.493Z,10.13
2023-02-18T22:02:04.382Z,9.05
2023-02-18T22:04:34.780Z,8.23
2023-02-18T22:07:03.880Z,7.82
2023-02-18T22:09:32.424Z,9.43
2023-02-18T22:12:01.050Z,11.56
2023-02-18T22:14:29.610Z,11.49
2023-02-18T22:16:58.218Z,10.13
2023-02-18T22:19:26.675Z,9.04
2023-02-18T22:21:56.007Z,8.24
2023-02-18T22:24:24.786Z,7.82
2023-02-18T22:26:53.270Z,9.29
2023-02-18T22:29:22.460Z,11.42
2023-02-18T22:31:53.584Z,11.44
2023-02-18T22:34:23.201Z,10.12
2023-02-18T22:36:51.694Z,9.05
2023-02-18T22:39:20.214Z,8.26
2023-02-18T22:41:49.655Z,8.20
2023-02-18T22:44:19.540Z,10.25
2023-02-18T22:46:48.167Z,12.14
2023-02-18T22:49:16.781Z,11.58
2023-02-18T22:51:45.364Z,10.28
2023-02-18T22:54:16.350Z,9.28
2023-02-18T22:56:47.136Z,8.51
2023-02-18T22:59:20.112Z,8.49
2023-02-18T23:01:49.941Z,10.58
2023-02-18T23:04:20.255Z,12.16
2023-02-18T23:06:50.220Z,11.30
2023-02-18T23:09:24.472Z,10.07
2023-02-18T23:11:56.627Z,9.12
2023-02-18T23:14:28.492Z,8.82
2023-02-18T23:17:15.078Z,10.52
2023-02-18T23:19:51.865Z,12.17
2023-02-18T23:22:29.451Z,11.29
2023-02-18T23:24:58.483Z,10.02
2023-02-18T23:27:27.776Z,9.14
2023-02-18T23:29:56.791Z,8.47
2023-02-18T23:32:28.050Z,8.68
2023-02-18T23:34:56.749Z,10.68
2023-02-18T23:37:45.066Z,12.06
2023-02-18T23:40:15.087Z,11.00
2023-02-18T23:42:43.558Z,9.84
2023-02-18T23:45:12.017Z,8.98
2023-02-18T23:47:40.494Z,8.40
2023-02-18T23:50:09.196Z,9.45
2023-02-18T23:52:37.641Z,11.19
2023-02-18T23:55:07.786Z,10.86
2023-02-18T23:57:36.722Z,9.74
